»·PEaware :: N313N KSFO-KLAX

N313N :: KSFO-KLAX

FLIGHT INFORMATION

Flight Status: Arrived
Operator: Privately registered:
United States
More flights under this callsign
Pilot: Damien O. (2415)
Aircraft: GULFSTREAM G-1159C GULFSTREAM 4
(GLF4)
More flights by this aircraft type
Origin: KSFO San Francisco Intl
United States
Destination: KLAX Los Angeles Intl
United States
More flights between these airports :: More routes between these airports
Route: +SSTIK4 EBAYE BURGL IRNMN2
File this flight plan on PilotEdge
Remarks:
Altitude:
(Current/Filed)
390ft
Speed:
(Current/Filed)
350kts
Departed: 28-Nov-18 09:08 PM
Arrived: 28-Nov-18 10:20 PM
Distance/Time
Traveled:
294nm/1:11
Distance/Time
To Go:
Arrived

Flight Plot

Page will automatically refresh every two minutes.

Flight plan parsing failed; only flown route is shown


Map Options




Map Legend


Flown Route
Filed Route
Departure Airport
Arrival Airport
Navaid (VOR, NDB)
Fix

Horizontal Profiles

Position Reports

Time Latitude Longitude Heading Altitude Ground
Speed
28-Nov-18 20:35 37.627656 -122.384170 294 21ft 0kts
28-Nov-18 20:36 37.627656 -122.384170 294 21ft 0kts
28-Nov-18 20:37 37.627656 -122.384170 294 21ft 0kts
28-Nov-18 20:38 37.627656 -122.384170 294 21ft 0kts
28-Nov-18 20:39 37.627656 -122.384170 294 21ft 0kts
28-Nov-18 20:40 37.627656 -122.384170 294 21ft 0kts
28-Nov-18 20:41 37.627656 -122.384170 294 21ft 0kts
28-Nov-18 20:42 37.627656 -122.384170 294 21ft 0kts
28-Nov-18 20:43 37.627656 -122.384170 294 21ft 0kts
28-Nov-18 20:44 37.627656 -122.384170 294 21ft 0kts
28-Nov-18 20:45 37.627656 -122.384170 294 21ft 0kts
28-Nov-18 20:46 37.627656 -122.384170 294 21ft 0kts
28-Nov-18 20:47 37.627656 -122.384170 294 21ft 0kts
28-Nov-18 20:48 37.627656 -122.384170 294 21ft 0kts
28-Nov-18 20:49 37.627656 -122.384170 294 21ft 0kts
28-Nov-18 20:50 37.627656 -122.384170 294 21ft 0kts
28-Nov-18 20:51 37.627656 -122.384170 294 21ft 0kts
28-Nov-18 20:52 37.627656 -122.384170 294 21ft 0kts
28-Nov-18 20:53 37.627656 -122.384170 294 21ft 0kts
28-Nov-18 20:54 37.627656 -122.384170 294 21ft 0kts
28-Nov-18 20:55 37.627656 -122.384170 294 21ft 0kts
28-Nov-18 20:56 37.627656 -122.384170 294 21ft 0kts
28-Nov-18 20:57 37.627656 -122.384170 294 21ft 0kts
28-Nov-18 20:58 37.627656 -122.384170 294 21ft 0kts
28-Nov-18 20:59 37.627451 -122.384951 234 21ft 0kts
28-Nov-18 21:00 37.627413 -122.385017 234 21ft 0kts
28-Nov-18 21:01 37.627413 -122.385017 234 21ft 0kts
28-Nov-18 21:02 37.625097 -122.381023 117 21ft 15kts
28-Nov-18 21:03 37.623321 -122.376641 117 21ft 10kts
28-Nov-18 21:04 37.622038 -122.375948 227 21ft 7kts
28-Nov-18 21:05 37.620037 -122.378761 226 21ft 13kts
28-Nov-18 21:06 37.617261 -122.378608 202 21ft 13kts
28-Nov-18 21:07 37.613701 -122.380589 210 21ft 12kts
28-Nov-18 21:08 37.611280 -122.382229 206 21ft 8kts
28-Nov-18 21:09 37.608199 -122.383694 120 21ft 11kts
28-Nov-18 21:10 37.608142 -122.383450 103 21ft 0kts
28-Nov-18 21:11 37.625213 -122.371867 24 799ft 202kts
28-Nov-18 21:17 37.608729 -122.383889 187 21ft 11kts
28-Nov-18 21:18 37.608352 -122.383567 119 21ft 11kts
28-Nov-18 21:19 37.646652 -122.360179 27 1192ft 250kts
28-Nov-18 21:20 37.703485 -122.386425 255 3433ft 274kts
28-Nov-18 21:21 37.640291 -122.423121 196 5607ft 275kts
28-Nov-18 21:22 37.565723 -122.455595 196 7627ft 295kts
28-Nov-18 21:23 37.485966 -122.481939 164 9669ft 301kts
28-Nov-18 21:24 37.426550 -122.410449 128 11760ft 328kts
28-Nov-18 21:25 37.362728 -122.306613 128 13833ft 400kts
28-Nov-18 21:26 37.292886 -122.198369 128 15814ft 406kts
28-Nov-18 21:27 37.220103 -122.090228 127 17800ft 412kts
28-Nov-18 21:28 37.136574 -121.983518 132 19830ft 446kts
28-Nov-18 21:29 37.046792 -121.870911 132 21852ft 468kts
28-Nov-18 21:30 36.958853 -121.755504 132 23824ft 450kts
28-Nov-18 21:31 36.875974 -121.645975 132 25759ft 431kts
28-Nov-18 21:32 36.793083 -121.542257 132 27714ft 423kts
28-Nov-18 21:33 36.709377 -121.439019 132 29681ft 424kts
28-Nov-18 21:34 36.629229 -121.337085 133 31607ft 419kts
28-Nov-18 21:35 36.551394 -121.233516 132 33554ft 408kts
28-Nov-18 21:36 36.473161 -121.135931 132 35526ft 390kts
28-Nov-18 21:37 36.403384 -121.039495 129 37536ft 376kts
28-Nov-18 21:38 36.328542 -120.942923 129 38802ft 415kts
28-Nov-18 21:39 36.244382 -120.829527 129 38852ft 480kts
28-Nov-18 21:40 36.154405 -120.699385 129 38844ft 506kts
28-Nov-18 21:41 36.062777 -120.567727 129 38844ft 506kts
28-Nov-18 21:42 35.970880 -120.436646 129 38845ft 506kts
28-Nov-18 21:43 35.885105 -120.314191 129 38838ft 506kts
28-Nov-18 21:44 35.810304 -120.207213 129 38837ft 506kts
28-Nov-18 21:45 35.703484 -120.054248 131 38836ft 506kts
28-Nov-18 21:46 35.598305 -120.014767 198 38874ft 489kts
28-Nov-18 21:47 35.456862 -120.099632 210 38841ft 490kts
28-Nov-18 21:48 35.339436 -120.179694 230 38899ft 474kts
28-Nov-18 21:49 35.240005 -120.239101 200 38871ft 492kts
28-Nov-18 21:50 35.119602 -120.185884 132 38891ft 496kts
28-Nov-18 21:51 35.056297 -120.042284 102 38877ft 492kts
28-Nov-18 21:52 34.979596 -119.907770 132 38267ft 493kts
28-Nov-18 21:53 34.887746 -119.787808 132 36343ft 497kts
28-Nov-18 21:54 34.793097 -119.665241 132 34348ft 500kts
28-Nov-18 21:55 34.697739 -119.542522 131 32359ft 505kts
28-Nov-18 21:56 34.600797 -119.418527 131 30371ft 512kts
28-Nov-18 21:57 34.515712 -119.310551 132 28655ft 518kts
28-Nov-18 21:58 34.427703 -119.200758 132 26012ft 380kts
28-Nov-18 21:59 34.360409 -119.101282 123 23090ft 391kts
28-Nov-18 22:00 34.296818 -118.997857 122 20081ft 361kts
28-Nov-18 22:01 34.245100 -118.905807 133 17106ft 319kts
28-Nov-18 22:02 34.179711 -118.829628 135 14173ft 342kts
28-Nov-18 22:03 34.113006 -118.757398 136 11210ft 313kts
28-Nov-18 22:04 34.051166 -118.691093 136 8983ft 267kts
28-Nov-18 22:05 34.022210 -118.610987 106 8985ft 283kts
28-Nov-18 22:06 34.003373 -118.520027 86 8991ft 306kts
28-Nov-18 22:07 34.012135 -118.423963 77 8735ft 295kts
28-Nov-18 22:08 34.022410 -118.353180 77 6402ft 234kts
28-Nov-18 22:09 34.030940 -118.301945 78 5982ft 195kts
28-Nov-18 22:10 34.010676 -118.259373 180 5981ft 233kts
28-Nov-18 22:11 33.975661 -118.220183 80 5025ft 277kts
28-Nov-18 22:12 34.011136 -118.159765 51 4983ft 255kts
28-Nov-18 22:13 34.044963 -118.109706 51 4992ft 203kts
28-Nov-18 22:14 34.038831 -118.065764 170 5008ft 184kts
28-Nov-18 22:15 33.992663 -118.070688 229 4158ft 214kts
28-Nov-18 22:16 33.966216 -118.112558 231 3571ft 194kts
28-Nov-18 22:17 33.958316 -118.150470 269 3554ft 163kts
28-Nov-18 22:18 33.957104 -118.184448 263 3348ft 180kts
28-Nov-18 22:19 33.953081 -118.228841 261 2706ft 249kts
28-Nov-18 22:20 33.947313 -118.286089 261 1760ft 287kts
28-Nov-18 22:21 33.941734 -118.342785 261 884ft 163kts
28-Nov-18 22:22 33.936602 -118.389377 258 138ft 153kts
28-Nov-18 22:23 33.934229 -118.407037 183 133ft 0kts
28-Nov-18 22:24 33.933962 -118.403876 82 133ft 29kts
28-Nov-18 22:25 33.934882 -118.395224 80 133ft 39kts
28-Nov-18 22:26 33.935196 -118.388322 83 133ft 20kts
28-Nov-18 22:27 33.934612 -118.386695 137 133ft 0kts
28-Nov-18 22:28 33.934612 -118.386695 137 133ft 0kts
28-Nov-18 22:29 33.934612 -118.386695 137 133ft 0kts
28-Nov-18 22:30 33.934612 -118.386695 137 133ft 0kts

Navigation Log

Ident Type
Flight plan parsing failed, navigation log unavailable